Time;durP1;ratioP1;P1;durP2;ratioP2;P2;SDS_P1;SDS_P2;PMS_P1;PMS_P2;Temp;Humidity;BMP_temperature;BMP_pressure;BME280_temperature;BME280_humidity;BME280_pressure;Samples;Min_cycle;Max_cycle;Signal;HPM_P1;HPM_P2
2021/12/29 00:00:39;;;;;;;35.17;10.75;;;8.60;86.90;;;;;;6124186;23;92390;-70
2021/12/29 00:03:06;;;;;;;35.33;11.63;;;8.70;86.50;;;;;;6097960;23;94532;-71
2021/12/29 00:05:33;;;;;;;31.92;11.02;;;8.60;86.60;;;;;;6097797;23;92562;-71
2021/12/29 00:08:01;;;;;;;31.83;12.07;;;8.60;86.50;;;;;;6123591;23;92557;-71
2021/12/29 00:10:28;;;;;;;63.30;12.98;;;8.70;86.60;;;;;;6096439;23;95298;-71
2021/12/29 00:12:56;;;;;;;48.97;13.27;;;8.70;86.70;;;;;;6146701;22;93038;-71
2021/12/29 00:15:26;;;;;;;34.97;12.10;;;8.70;86.60;;;;;;6123784;23;92734;-70
2021/12/29 00:17:54;;;;;;;29.85;11.55;;;8.70;86.60;;;;;;6124047;23;92373;-70
2021/12/29 00:20:28;;;;;;;87.05;14.98;;;8.70;86.60;;;;;;6123974;23;92378;-71
2021/12/29 00:22:56;;;;;;;;;;;8.70;86.90;;;;;;6097880;23;92962;-70
2021/12/29 00:25:23;;;;;;;36.72;12.60;;;8.60;87.00;;;;;;6126177;23;92857;-70
2021/12/29 00:27:50;;;;;;;25.35;12.15;;;8.60;87.20;;;;;;6124711;23;91663;-71
2021/12/29 00:30:17;;;;;;;38.50;14.05;;;8.60;87.20;;;;;;6097664;23;92377;-71
2021/12/29 00:32:54;;;;;;;26.10;11.60;;;8.60;87.20;;;;;;6099398;23;92864;-71
2021/12/29 00:35:41;;;;;;;59.85;15.15;;;8.60;87.20;;;;;;6121290;23;94792;-71
2021/12/29 00:38:27;;;;;;;26.98;11.45;;;8.70;87.20;;;;;;6124245;23;92396;-70
2021/12/29 00:41:13;;;;;;;29.17;12.40;;;8.60;87.30;;;;;;6081084;23;92534;-71
2021/12/29 00:43:59;;;;;;;23.05;11.93;;;8.60;87.30;;;;;;6123896;23;92757;-71
2021/12/29 00:46:55;;;;;;;26.50;12.20;;;8.60;87.50;;;;;;6122417;23;93633;-71
2021/12/29 00:49:29;;;;;;;23.60;11.43;;;8.60;87.70;;;;;;6073274;23;92427;-71
2021/12/29 00:51:56;;;;;;;20.27;11.85;;;8.60;87.80;;;;;;6124031;23;92276;-71
2021/12/29 00:54:24;;;;;;;23.13;12.05;;;8.60;87.80;;;;;;6097855;23;99285;-70
2021/12/29 00:56:51;;;;;;;26.98;12.18;;;8.70;88.10;;;;;;6123905;23;92470;-71
2021/12/29 00:59:19;;;;;;;24.30;12.15;;;8.70;87.90;;;;;;6097395;23;92484;-71
2021/12/29 01:01:47;;;;;;;34.20;12.95;;;8.70;88.20;;;;;;6122398;23;94760;-71
2021/12/29 01:04:14;;;;;;;26.90;11.75;;;8.70;88.10;;;;;;6123551;23;93147;-71
2021/12/29 01:06:41;;;;;;;25.52;11.73;;;8.70;87.90;;;;;;6097486;23;97481;-71
2021/12/29 01:09:08;;;;;;;26.05;11.75;;;8.60;87.80;;;;;;6124094;23;92756;-70
2021/12/29 01:11:35;;;;;;;19.75;10.88;;;8.60;87.70;;;;;;6122158;23;92387;-71
2021/12/29 01:14:03;;;;;;;22.70;10.77;;;8.60;87.70;;;;;;6123339;23;92913;-70
2021/12/29 01:19:12;;;;;;;20.88;10.43;;;8.60;87.60;;;;;;6098769;23;91789;-71
2021/12/29 01:21:41;;;;;;;14.80;8.52;;;8.70;87.50;;;;;;6124218;23;92430;-70
2021/12/29 01:24:09;;;;;;;20.05;8.98;;;8.70;87.60;;;;;;6124395;23;93087;-71
2021/12/29 01:26:37;;;;;;;17.52;8.85;;;8.70;87.60;;;;;;6123616;23;94793;-71
2021/12/29 01:29:05;;;;;;;20.58;9.45;;;8.70;87.70;;;;;;6098120;23;102147;-70
2021/12/29 01:31:32;;;;;;;16.98;8.13;;;8.70;87.80;;;;;;6124878;23;92424;-71
2021/12/29 01:33:59;;;;;;;14.70;7.63;;;8.70;87.70;;;;;;6124618;23;92880;-70
2021/12/29 01:36:27;;;;;;;11.98;7.25;;;8.70;87.50;;;;;;6123880;23;99862;-71
2021/12/29 01:38:54;;;;;;;15.07;7.78;;;8.70;87.60;;;;;;6098289;23;92391;-70
2021/12/29 01:41:21;;;;;;;20.90;7.90;;;8.70;87.50;;;;;;6124332;23;92450;-71
2021/12/29 01:43:48;;;;;;;12.90;7.10;;;8.70;87.30;;;;;;6124886;23;92196;-70
2021/12/29 01:46:15;;;;;;;15.00;7.95;;;8.70;87.40;;;;;;6072873;23;93416;-70
2021/12/29 01:48:43;;;;;;;13.15;7.45;;;8.70;87.30;;;;;;6122906;23;92386;-71
2021/12/29 01:51:12;;;;;;;13.65;7.90;;;8.70;87.90;;;;;;6122537;23;95593;-70
2021/12/29 01:53:47;;;;;;;15.65;8.13;;;8.70;87.30;;;;;;6124247;23;92869;-70
2021/12/29 01:56:15;;;;;;;16.10;8.43;;;8.70;87.50;;;;;;6124052;23;92700;-71
2021/12/29 01:58:42;;;;;;;19.88;8.55;;;8.80;87.50;;;;;;6122568;22;92463;-71
2021/12/29 02:01:09;;;;;;;23.80;9.35;;;8.70;87.50;;;;;;6121814;23;92391;-70
2021/12/29 02:03:36;;;;;;;18.00;8.80;;;8.70;87.50;;;;;;6098184;23;92871;-71
2021/12/29 02:06:03;;;;;;;20.98;8.68;;;8.70;87.70;;;;;;6098013;23;94900;-70
2021/12/29 02:08:32;;;;;;;28.83;10.10;;;8.70;87.80;;;;;;6098229;23;91967;-71
2021/12/29 02:11:00;;;;;;;38.30;10.98;;;8.70;87.80;;;;;;6123683;23;92382;-71
2021/12/29 02:13:28;;;;;;;30.85;10.52;;;8.80;88.00;;;;;;6073103;23;92910;-70
2021/12/29 02:15:55;;;;;;;43.28;11.00;;;8.80;88.30;;;;;;6121994;23;94829;-70
2021/12/29 02:18:25;;;;;;;36.53;11.07;;;8.70;88.20;;;;;;6123390;23;92307;-71
2021/12/29 02:20:54;;;;;;;38.67;11.20;;;8.70;88.70;;;;;;6074226;23;92497;-71
2021/12/29 02:23:46;;;;;;;35.40;11.82;;;8.70;88.60;;;;;;6097020;23;92989;-70
2021/12/29 02:26:14;;;;;;;46.22;11.43;;;8.80;88.80;;;;;;6076979;23;94003;-71
2021/12/29 02:28:41;;;;;;;33.28;10.35;;;8.70;88.60;;;;;;6096810;23;104717;-70
2021/12/29 02:31:08;;;;;;;31.42;10.18;;;8.70;88.70;;;;;;6123675;23;92358;-71
2021/12/29 02:33:35;;;;;;;35.42;10.80;;;8.70;88.60;;;;;;6123675;23;92165;-71
2021/12/29 02:36:04;;;;;;;35.05;11.05;;;8.70;88.70;;;;;;6123539;23;92476;-70
2021/12/29 02:38:35;;;;;;;35.42;11.48;;;8.70;88.90;;;;;;6097116;23;92400;-70
2021/12/29 02:41:05;;;;;;;27.13;9.43;;;8.70;88.90;;;;;;6120497;23;94883;-71
2021/12/29 02:43:36;;;;;;;38.80;11.18;;;8.70;88.90;;;;;;6122284;23;93105;-71
2021/12/29 02:46:11;;;;;;;40.72;11.38;;;8.70;88.90;;;;;;6121387;23;97443;-71
2021/12/29 02:48:44;;;;;;;32.75;10.60;;;8.80;89.00;;;;;;6123521;23;92868;-70
2021/12/29 02:51:11;;;;;;;41.05;10.95;;;8.70;89.00;;;;;;6123591;23;92362;-71
2021/12/29 02:53:38;;;;;;;33.85;11.35;;;8.80;88.80;;;;;;6122956;23;92981;-71
2021/12/29 02:56:05;;;;;;;36.60;11.35;;;8.80;88.80;;;;;;6097091;23;93006;-71
2021/12/29 02:58:32;;;;;;;42.25;11.35;;;8.80;88.70;;;;;;6121266;23;98081;-71
2021/12/29 03:01:03;;;;;;;36.25;11.18;;;8.80;88.70;;;;;;6121430;23;92454;-70
2021/12/29 03:03:30;;;;;;;30.77;10.25;;;8.90;88.50;;;;;;6122866;23;92998;-71
2021/12/29 03:05:57;;;;;;;33.08;10.68;;;8.90;88.50;;;;;;6120992;23;107995;-71
2021/12/29 03:08:25;;;;;;;26.23;10.20;;;8.90;88.50;;;;;;6096910;23;92391;-71
2021/12/29 03:10:53;;;;;;;26.75;9.52;;;8.90;88.40;;;;;;6122513;23;92442;-71
2021/12/29 03:13:22;;;;;;;26.35;9.05;;;8.90;88.10;;;;;;6122879;23;97560;-71
2021/12/29 03:15:50;;;;;;;29.65;9.82;;;8.90;87.90;;;;;;6148228;22;92650;-70
2021/12/29 03:18:18;;;;;;;23.70;9.07;;;8.90;88.00;;;;;;6123794;23;92789;-71
2021/12/29 03:20:45;;;;;;;20.27;8.60;;;8.90;88.50;;;;;;6148448;22;92382;-71
2021/12/29 03:23:13;;;;;;;18.73;7.15;;;9.00;88.10;;;;;;6125430;23;91642;-71
2021/12/29 03:25:40;;;;;;;22.65;7.90;;;9.00;88.00;;;;;;6125177;23;92401;-71
2021/12/29 03:28:08;;;;;;;23.27;6.80;;;9.00;88.70;;;;;;6097771;23;100320;-70
2021/12/29 03:30:38;;;;;;;19.30;6.55;;;9.00;88.70;;;;;;6123637;23;95106;-70
2021/12/29 03:33:07;;;;;;;19.42;7.20;;;9.00;88.20;;;;;;6148258;22;95575;-71
2021/12/29 03:35:40;;;;;;;20.02;6.78;;;9.00;88.30;;;;;;6124673;23;92681;-70
2021/12/29 03:38:11;;;;;;;19.33;7.70;;;9.00;88.50;;;;;;6125591;23;92398;-70
2021/12/29 03:40:38;;;;;;;19.77;7.70;;;9.00;88.60;;;;;;6124913;23;92332;-70
2021/12/29 03:43:07;;;;;;;19.92;8.05;;;9.00;88.60;;;;;;6125018;23;93250;-71
2021/12/29 03:45:35;;;;;;;18.40;7.97;;;9.00;88.60;;;;;;6124447;23;92418;-71
2021/12/29 03:48:02;;;;;;;17.88;7.00;;;9.00;88.60;;;;;;6098883;23;91684;-70
2021/12/29 03:50:29;;;;;;;21.05;7.65;;;9.10;88.60;;;;;;6122340;23;103827;-71
2021/12/29 03:52:56;;;;;;;19.42;7.25;;;9.10;88.70;;;;;;6123137;23;95139;-70
2021/12/29 03:55:23;;;;;;;20.52;8.13;;;9.10;89.20;;;;;;6121662;23;95464;-70
2021/12/29 03:57:50;;;;;;;21.23;7.78;;;9.10;88.50;;;;;;6098415;23;94655;-71
2021/12/29 04:00:18;;;;;;;16.60;7.50;;;9.10;88.60;;;;;;6098501;23;92417;-71
2021/12/29 04:02:45;;;;;;;22.15;7.90;;;9.20;88.50;;;;;;6124021;23;92946;-71
2021/12/29 04:05:15;;;;;;;22.27;8.38;;;9.20;88.40;;;;;;6124745;23;92658;-70
2021/12/29 04:07:42;;;;;;;20.40;8.88;;;9.20;88.40;;;;;;6124580;23;92491;-71
2021/12/29 04:10:10;;;;;;;22.60;9.43;;;9.20;88.30;;;;;;6125136;23;92442;-71
2021/12/29 04:12:42;;;;;;;31.40;10.30;;;9.20;88.40;;;;;;6148080;22;93505;-71
2021/12/29 04:15:10;;;;;;;27.88;10.68;;;9.20;88.30;;;;;;6097562;23;93277;-70
2021/12/29 04:17:39;;;;;;;23.23;9.90;;;9.20;88.40;;;;;;6123673;23;99745;-71
2021/12/29 04:22:58;;;;;;;28.23;11.93;;;9.30;88.60;;;;;;6124076;23;92392;-71
2021/12/29 04:25:26;;;;;;;30.23;12.32;;;9.30;88.80;;;;;;6123851;23;97580;-71
2021/12/29 04:27:55;;;;;;;30.52;12.15;;;9.30;88.80;;;;;;6123983;23;92422;-71
2021/12/29 04:30:24;;;;;;;32.20;12.38;;;9.30;88.50;;;;;;6097410;23;92426;-71
2021/12/29 04:32:52;;;;;;;27.58;12.57;;;9.30;88.50;;;;;;6123855;23;92898;-70
2021/12/29 04:35:23;;;;;;;33.97;13.18;;;9.30;89.20;;;;;;6123992;23;94268;-70
2021/12/29 04:37:51;;;;;;;38.22;13.98;;;9.30;88.60;;;;;;6124583;23;91782;-71
2021/12/29 04:40:19;;;;;;;38.92;14.10;;;9.30;88.50;;;;;;6124399;23;92437;-71
2021/12/29 04:42:47;;;;;;;39.45;13.82;;;9.40;88.70;;;;;;6123753;23;93089;-71
2021/12/29 04:45:15;;;;;;;41.00;15.13;;;9.40;88.50;;;;;;6071739;23;95337;-71
2021/12/29 04:47:45;;;;;;;34.97;13.77;;;9.50;88.70;;;;;;6123455;23;92480;-71
2021/12/29 04:52:54;;;;;;;33.92;14.50;;;9.50;88.40;;;;;;6123970;23;92774;-71
2021/12/29 04:55:21;;;;;;;32.40;12.52;;;9.50;88.30;;;;;;6123759;23;92803;-70
2021/12/29 04:57:48;;;;;;;31.58;12.95;;;9.50;88.40;;;;;;6097022;23;101136;-71
2021/12/29 05:00:17;;;;;;;39.78;15.32;;;9.50;88.30;;;;;;6124145;23;92485;-71
2021/12/29 05:02:44;;;;;;;34.00;13.90;;;9.50;88.40;;;;;;6124173;23;92891;-71
2021/12/29 05:05:21;;;;;;;40.85;14.85;;;9.50;88.80;;;;;;6097707;23;92504;-71
2021/12/29 05:10:34;;;;;;;37.17;14.40;;;9.50;88.10;;;;;;6122656;23;94805;-71
2021/12/29 05:13:02;;;;;;;32.92;14.80;;;9.50;88.10;;;;;;6097533;23;92475;-71
2021/12/29 05:15:29;;;;;;;40.42;16.73;;;9.50;88.10;;;;;;6072876;23;93942;-71
2021/12/29 05:17:58;;;;;;;36.50;15.50;;;9.50;88.00;;;;;;6097449;23;92468;-70
2021/12/29 05:20:27;;;;;;;33.13;14.27;;;9.50;88.00;;;;;;6124057;23;92379;-71
2021/12/29 05:22:56;;;;;;;34.40;15.40;;;9.60;88.10;;;;;;6121414;23;94133;-71
2021/12/29 05:25:23;;;;;;;36.70;15.60;;;9.60;87.90;;;;;;6123955;23;92440;-71
2021/12/29 05:27:50;;;;;;;34.22;15.88;;;9.60;88.00;;;;;;6097623;23;91823;-71
2021/12/29 05:30:18;;;;;;;30.60;14.50;;;9.60;87.90;;;;;;6121625;23;102432;-71
2021/12/29 05:32:45;;;;;;;32.33;15.20;;;9.60;87.90;;;;;;6097018;23;93123;-71
2021/12/29 05:35:13;;;;;;;34.88;15.48;;;9.60;87.80;;;;;;6122106;23;94875;-71
2021/12/29 05:37:40;;;;;;;38.25;16.48;;;9.60;87.80;;;;;;6123810;23;92448;-71
2021/12/29 05:40:08;;;;;;;34.80;15.75;;;9.60;87.70;;;;;;6123661;23;92374;-71
2021/12/29 05:42:36;;;;;;;32.72;14.85;;;9.60;87.90;;;;;;6123698;23;93264;-71
2021/12/29 05:45:08;;;;;;;36.22;17.13;;;9.60;87.80;;;;;;6123205;23;95112;-71
2021/12/29 05:47:36;;;;;;;32.65;17.00;;;9.60;87.90;;;;;;6123433;23;92327;-71
2021/12/29 05:50:06;;;;;;;35.28;16.25;;;9.60;88.00;;;;;;6097178;23;92463;-71
2021/12/29 05:52:33;;;;;;;31.13;14.32;;;9.60;88.00;;;;;;6097143;23;94945;-71
2021/12/29 05:55:00;;;;;;;32.78;15.15;;;9.60;87.90;;;;;;6123389;23;92597;-71
2021/12/29 05:57:27;;;;;;;27.92;15.73;;;9.60;88.00;;;;;;6123369;23;104263;-71
2021/12/29 05:59:54;;;;;;;29.33;14.48;;;9.60;88.00;;;;;;6095570;23;94934;-71
2021/12/29 06:02:21;;;;;;;31.13;15.95;;;9.60;88.00;;;;;;6096943;23;93009;-71
2021/12/29 06:04:48;;;;;;;39.33;16.70;;;9.60;87.90;;;;;;6123257;23;93299;-71
2021/12/29 06:07:15;;;;;;;30.75;15.32;;;9.60;88.00;;;;;;6121827;23;92346;-70
2021/12/29 06:09:42;;;;;;;34.25;16.02;;;9.60;87.90;;;;;;6097421;23;92463;-71
2021/12/29 06:12:09;;;;;;;28.70;16.40;;;9.60;87.90;;;;;;6121745;23;92856;-70
2021/12/29 06:14:36;;;;;;;35.60;17.20;;;9.60;87.90;;;;;;6146531;22;95675;-71
2021/12/29 06:17:03;;;;;;;35.55;15.85;;;9.60;88.00;;;;;;6097436;23;91717;-71
2021/12/29 06:19:32;;;;;;;34.70;16.70;;;9.60;87.90;;;;;;6123452;23;92390;-71
2021/12/29 06:21:58;;;;;;;34.15;15.88;;;9.60;87.90;;;;;;6122536;23;107870;-70
2021/12/29 06:24:25;;;;;;;37.38;16.50;;;9.70;87.80;;;;;;6095521;23;94953;-70
2021/12/29 06:26:52;;;;;;;35.10;14.80;;;9.70;87.80;;;;;;6123135;23;92431;-70
2021/12/29 06:29:19;;;;;;;29.95;15.50;;;9.70;87.70;;;;;;6072410;23;92410;-70
2021/12/29 06:31:48;;;;;;;33.13;16.08;;;9.70;87.70;;;;;;6072388;23;93824;-70
2021/12/29 06:34:15;;;;;;;33.05;15.38;;;9.70;87.70;;;;;;6121560;23;93963;-70
2021/12/29 06:36:42;;;;;;;28.95;14.55;;;9.70;87.50;;;;;;6096964;23;93338;-70
2021/12/29 06:39:09;;;;;;;30.80;15.23;;;9.70;87.50;;;;;;6123267;23;92439;-71
2021/12/29 06:41:36;;;;;;;35.40;16.17;;;9.70;87.60;;;;;;6097409;23;95361;-71
2021/12/29 06:44:04;;;;;;;34.17;14.95;;;9.70;87.60;;;;;;6123220;23;92372;-70
2021/12/29 06:46:31;;;;;;;31.08;15.38;;;9.70;87.60;;;;;;6124220;23;92428;-70
2021/12/29 06:48:58;;;;;;;36.13;15.95;;;9.70;87.60;;;;;;6047638;23;94747;-70
2021/12/29 06:51:25;;;;;;;32.42;15.95;;;9.70;88.20;;;;;;6072436;23;113876;-71
2021/12/29 06:53:52;;;;;;;32.65;15.75;;;9.70;87.50;;;;;;6097836;23;93098;-70
2021/12/29 06:56:19;;;;;;;32.35;14.65;;;9.70;87.50;;;;;;6074033;23;92857;-70
2021/12/29 06:58:46;;;;;;;28.95;15.02;;;9.70;87.60;;;;;;6124719;23;92404;-70
2021/12/29 07:01:16;;;;;;;33.30;16.33;;;9.80;87.50;;;;;;6073600;23;92398;-70
2021/12/29 07:03:43;;;;;;;27.95;13.52;;;9.80;87.50;;;;;;6098867;23;92914;-70
2021/12/29 07:06:10;;;;;;;30.75;14.45;;;9.70;87.20;;;;;;6124258;23;97750;-70
2021/12/29 07:08:38;;;;;;;35.45;14.63;;;9.70;87.30;;;;;;6124562;23;92336;-71
2021/12/29 07:11:04;;;;;;;28.05;13.18;;;9.70;87.40;;;;;;6124037;23;92940;-71
2021/12/29 07:13:31;;;;;;;29.98;14.98;;;9.70;87.50;;;;;;6121260;23;94990;-70
2021/12/29 07:15:59;;;;;;;34.13;15.70;;;9.80;87.40;;;;;;6097812;23;92537;-71
2021/12/29 07:18:26;;;;;;;28.70;15.07;;;9.80;87.40;;;;;;6124216;23;92413;-70
2021/12/29 07:20:53;;;;;;;31.40;13.57;;;9.80;87.20;;;;;;6098014;23;93136;-70
2021/12/29 07:23:20;;;;;;;25.50;12.50;;;9.80;87.20;;;;;;6097954;23;92938;-70
2021/12/29 07:25:47;;;;;;;32.60;15.32;;;9.80;87.00;;;;;;6124379;23;92460;-70
2021/12/29 07:28:14;;;;;;;32.80;15.32;;;9.80;86.90;;;;;;6098140;23;92792;-70
2021/12/29 07:30:41;;;;;;;24.67;12.23;;;9.80;86.80;;;;;;6098081;23;106995;-70
2021/12/29 07:33:08;;;;;;;32.95;13.35;;;9.80;86.90;;;;;;6123916;23;92409;-70
2021/12/29 07:35:35;;;;;;;31.90;13.55;;;9.90;86.90;;;;;;6124247;23;92354;-70
2021/12/29 07:38:02;;;;;;;29.40;13.93;;;9.90;87.00;;;;;;6122927;23;95227;-70
2021/12/29 07:40:30;;;;;;;30.48;14.25;;;9.90;86.90;;;;;;6097929;23;93030;-70
2021/12/29 07:42:57;;;;;;;29.73;13.35;;;9.90;87.00;;;;;;6124286;23;92906;-70
2021/12/29 07:45:26;;;;;;;30.50;13.50;;;9.90;86.90;;;;;;6073433;23;92832;-70
2021/12/29 07:47:53;;;;;;;28.67;13.18;;;9.90;86.80;;;;;;6074312;23;92521;-70
2021/12/29 07:50:21;;;;;;;30.65;12.70;;;9.90;86.80;;;;;;6123349;23;103826;-70
2021/12/29 07:52:56;;;;;;;25.98;12.00;;;9.80;86.70;;;;;;6122534;23;95354;-70
2021/12/29 07:55:23;;;;;;;28.50;13.30;;;9.90;86.90;;;;;;6122227;23;91751;-70
2021/12/29 07:57:50;;;;;;;26.73;12.30;;;9.90;86.80;;;;;;6124261;23;92306;-70
2021/12/29 08:00:17;;;;;;;28.73;13.35;;;9.90;86.90;;;;;;6096963;23;94219;-70
2021/12/29 08:02:44;;;;;;;32.72;13.32;;;9.90;86.80;;;;;;6071871;23;94878;-70
2021/12/29 08:05:12;;;;;;;24.73;11.95;;;9.90;86.70;;;;;;6097244;23;92521;-70
2021/12/29 08:07:45;;;;;;;27.17;12.32;;;9.90;86.60;;;;;;6122416;23;92548;-70
2021/12/29 08:10:13;;;;;;;31.13;13.07;;;9.90;86.60;;;;;;6097131;23;94044;-70
2021/12/29 08:12:40;;;;;;;26.77;12.55;;;9.90;86.70;;;;;;6123601;23;101192;-70
2021/12/29 08:15:08;;;;;;;27.98;11.13;;;9.90;86.70;;;;;;6123478;23;93439;-70
2021/12/29 08:17:36;;;;;;;24.33;11.77;;;9.90;86.60;;;;;;6124313;23;92748;-69
2021/12/29 08:20:05;;;;;;;25.17;10.95;;;9.90;86.40;;;;;;6122099;23;94437;-70
2021/12/29 08:22:31;;;;;;;28.10;11.55;;;10.00;86.60;;;;;;6124098;23;93145;-70
2021/12/29 08:24:58;;;;;;;27.67;11.73;;;9.90;86.50;;;;;;6123886;23;92461;-70
2021/12/29 08:27:26;;;;;;;28.40;11.50;;;10.00;86.40;;;;;;6120625;23;94926;-70
2021/12/29 08:29:53;;;;;;;25.75;11.43;;;10.00;86.30;;;;;;6123782;23;93120;-70
2021/12/29 08:32:20;;;;;;;24.02;11.52;;;10.00;86.30;;;;;;6123816;23;92802;-70
2021/12/29 08:34:47;;;;;;;26.13;11.52;;;10.00;86.50;;;;;;6121942;23;92525;-70
2021/12/29 08:37:16;;;;;;;25.30;11.32;;;10.00;86.90;;;;;;6123589;23;95717;-71
2021/12/29 08:39:43;;;;;;;22.17;10.93;;;10.00;86.20;;;;;;6124305;23;93067;-70
2021/12/29 08:42:12;;;;;;;19.58;10.25;;;10.00;86.20;;;;;;6097473;23;92802;-70
2021/12/29 08:44:42;;;;;;;22.17;9.88;;;10.00;86.20;;;;;;6098707;23;91822;-71
2021/12/29 08:47:10;;;;;;;29.05;10.98;;;10.10;86.30;;;;;;6147530;22;92748;-70
2021/12/29 08:49:37;;;;;;;29.85;11.90;;;10.10;86.40;;;;;;6123974;23;92327;-71
2021/12/29 08:52:04;;;;;;;33.17;11.82;;;10.10;86.40;;;;;;6120566;23;94902;-70
2021/12/29 08:54:32;;;;;;;28.80;11.32;;;10.10;86.30;;;;;;6123720;23;92940;-70
2021/12/29 08:56:59;;;;;;;26.90;10.50;;;10.10;86.30;;;;;;6124004;23;92375;-70
2021/12/29 08:59:26;;;;;;;24.02;11.73;;;10.10;86.30;;;;;;6121763;23;93012;-70
2021/12/29 09:01:54;;;;;;;30.85;12.45;;;10.10;86.50;;;;;;6097573;23;100799;-70
2021/12/29 09:04:21;;;;;;;29.95;12.30;;;10.10;86.40;;;;;;6123728;23;92357;-70
2021/12/29 09:06:48;;;;;;;29.02;11.68;;;10.10;86.20;;;;;;6123323;23;92382;-70
2021/12/29 09:09:15;;;;;;;29.05;12.82;;;10.20;86.20;;;;;;6123970;23;92170;-70
2021/12/29 09:11:42;;;;;;;29.95;12.18;;;10.20;86.40;;;;;;6097745;23;92449;-70
2021/12/29 09:14:09;;;;;;;23.67;11.27;;;10.20;86.30;;;;;;6097672;23;92506;-70
2021/12/29 09:16:36;;;;;;;35.67;12.38;;;10.20;86.40;;;;;;6121799;23;102048;-70
2021/12/29 09:19:04;;;;;;;33.20;12.23;;;10.20;86.50;;;;;;6121856;23;93028;-70
2021/12/29 09:21:33;;;;;;;30.55;11.75;;;10.20;86.30;;;;;;6123517;23;92662;-70
2021/12/29 09:24:00;;;;;;;27.40;11.38;;;10.20;86.80;;;;;;6124086;23;92459;-70
2021/12/29 09:26:27;;;;;;;34.80;12.60;;;10.20;86.20;;;;;;6048169;23;92475;-70
2021/12/29 09:28:54;;;;;;;30.08;11.70;;;10.30;86.30;;;;;;6123673;23;92991;-70
2021/12/29 09:31:22;;;;;;;33.00;12.13;;;10.30;86.30;;;;;;6097125;23;92977;-70
2021/12/29 09:33:49;;;;;;;37.22;12.27;;;10.30;86.30;;;;;;6124296;23;92026;-70
2021/12/29 09:36:16;;;;;;;31.77;11.63;;;10.40;86.20;;;;;;6121953;23;92524;-71
2021/12/29 09:38:43;;;;;;;31.63;11.85;;;10.40;86.00;;;;;;6124048;23;93014;-71
2021/12/29 09:41:15;;;;;;;30.50;11.45;;;10.40;86.00;;;;;;6071485;23;102666;-71
2021/12/29 09:43:45;;;;;;;32.47;11.38;;;10.40;85.90;;;;;;6122450;23;92453;-71
2021/12/29 09:46:13;;;;;;;24.90;10.65;;;10.50;85.70;;;;;;6096939;23;92576;-71
2021/12/29 09:48:40;;;;;;;23.23;10.18;;;10.50;85.60;;;;;;6097441;23;93456;-71
2021/12/29 09:51:13;;;;;;;26.27;11.55;;;10.50;85.60;;;;;;6097046;23;94097;-71
2021/12/29 09:53:42;;;;;;;26.80;10.82;;;10.50;85.50;;;;;;6124115;23;92564;-71
2021/12/29 09:56:10;;;;;;;19.27;10.30;;;10.60;85.60;;;;;;6097317;23;92360;-71
2021/12/29 09:58:38;;;;;;;19.42;9.93;;;10.60;85.50;;;;;;6124367;23;92303;-71
2021/12/29 10:01:07;;;;;;;22.50;10.02;;;10.60;85.40;;;;;;6124571;23;92453;-72
2021/12/29 10:03:35;;;;;;;24.55;9.95;;;10.70;85.30;;;;;;6123730;23;92318;-71
2021/12/29 10:06:05;;;;;;;21.92;10.18;;;10.70;85.10;;;;;;6123102;23;94764;-72
2021/12/29 10:08:40;;;;;;;20.00;10.23;;;10.70;85.00;;;;;;6123671;23;93056;-71
2021/12/29 10:11:12;;;;;;;19.98;9.80;;;10.80;85.10;;;;;;6123655;23;92814;-71
2021/12/29 10:13:46;;;;;;;19.65;9.88;;;10.80;85.00;;;;;;6123791;23;92415;-71
2021/12/29 10:16:17;;;;;;;23.65;9.98;;;10.80;84.90;;;;;;6124430;23;92445;-71
2021/12/29 10:18:45;;;;;;;20.25;10.95;;;10.90;84.80;;;;;;6123421;23;93141;-71
2021/12/29 10:21:19;;;;;;;22.30;11.45;;;10.90;84.80;;;;;;6097075;23;92854;-71
2021/12/29 10:23:50;;;;;;;25.27;11.68;;;11.00;84.60;;;;;;6122090;23;91636;-71
2021/12/29 10:26:38;;;;;;;20.30;10.65;;;11.00;84.70;;;;;;6101245;23;92916;-71
2021/12/29 10:29:08;;;;;;;20.60;10.10;;;11.10;84.60;;;;;;6123345;23;95457;-71
2021/12/29 10:31:39;;;;;;;22.75;9.73;;;11.10;84.30;;;;;;6121470;23;96255;-71
2021/12/29 10:34:18;;;;;;;24.48;10.05;;;11.10;84.30;;;;;;6124312;23;92287;-71
2021/12/29 10:36:45;;;;;;;21.35;9.82;;;11.20;84.40;;;;;;6121633;23;92519;-71
2021/12/29 10:39:19;;;;;;;21.42;10.63;;;11.20;84.20;;;;;;6124203;23;93189;-71
2021/12/29 10:41:51;;;;;;;26.67;11.02;;;11.20;84.10;;;;;;6122926;23;95192;-72
2021/12/29 10:44:27;;;;;;;21.30;9.20;;;11.30;83.90;;;;;;6123526;23;92547;-71
2021/12/29 10:46:56;;;;;;;17.52;9.32;;;11.30;83.90;;;;;;6123497;23;92380;-72
2021/12/29 10:49:26;;;;;;;16.15;9.90;;;11.30;83.70;;;;;;6098088;23;94892;-71
2021/12/29 10:51:57;;;;;;;15.35;9.25;;;11.40;83.70;;;;;;6122307;23;93842;-71
2021/12/29 10:54:27;;;;;;;12.77;8.05;;;11.40;83.50;;;;;;6097618;23;92911;-71
2021/12/29 10:57:04;;;;;;;29.63;19.13;;;11.40;83.40;;;;;;6122464;23;94838;-71
2021/12/29 10:59:35;;;;;;;17.50;10.55;;;11.40;83.30;;;;;;6121304;23;93100;-71
2021/12/29 11:02:03;;;;;;;17.42;10.02;;;11.40;83.30;;;;;;6123171;23;92825;-72
2021/12/29 11:04:31;;;;;;;15.35;10.18;;;11.40;83.40;;;;;;6096817;23;92481;-72
2021/12/29 11:07:01;;;;;;;15.30;9.00;;;11.40;83.30;;;;;;6123315;23;92345;-71
2021/12/29 11:09:33;;;;;;;11.50;7.70;;;11.40;83.10;;;;;;6123725;23;92995;-72
2021/12/29 11:12:09;;;;;;;12.77;7.63;;;11.40;83.10;;;;;;6124314;23;92650;-72
2021/12/29 11:14:42;;;;;;;13.90;9.30;;;11.40;83.20;;;;;;6124542;23;91632;-71
2021/12/29 11:17:17;;;;;;;12.07;7.30;;;11.40;83.10;;;;;;6122152;23;92373;-72
2021/12/29 11:19:56;;;;;;;11.18;7.35;;;11.40;83.20;;;;;;6123496;23;93032;-71
2021/12/29 11:22:29;;;;;;;12.45;8.00;;;11.40;83.20;;;;;;6096024;23;94833;-71
2021/12/29 11:25:03;;;;;;;14.13;8.25;;;11.30;83.30;;;;;;6123932;23;92368;-71
2021/12/29 11:27:31;;;;;;;;;;;11.30;83.40;;;;;;6097679;23;92424;-71
2021/12/29 11:30:02;;;;;;;11.32;6.95;;;11.20;83.30;;;;;;6125144;23;93002;-71
2021/12/29 11:32:34;;;;;;;11.85;7.13;;;11.20;83.50;;;;;;6125398;23;93062;-71
2021/12/29 11:35:13;;;;;;;10.88;6.82;;;11.20;83.40;;;;;;6125228;23;92481;-72
2021/12/29 11:37:47;;;;;;;12.50;8.05;;;11.20;83.40;;;;;;6124843;23;92342;-71
2021/12/29 11:40:18;;;;;;;11.93;7.13;;;11.20;83.30;;;;;;6125471;23;92138;-71
2021/12/29 11:42:47;;;;;;;13.40;7.55;;;11.20;83.40;;;;;;6124826;23;92468;-71
2021/12/29 11:45:14;;;;;;;11.48;7.88;;;11.20;83.30;;;;;;6123570;23;103173;-72
2021/12/29 11:47:42;;;;;;;14.55;8.20;;;11.20;83.10;;;;;;6121216;23;94955;-71
2021/12/29 11:50:12;;;;;;;14.60;8.15;;;11.20;83.20;;;;;;6122752;23;94132;-72
2021/12/29 11:53:20;;;;;;;11.07;6.88;;;11.20;83.10;;;;;;6122464;23;95469;-71
2021/12/29 11:55:55;;;;;;;13.15;7.65;;;11.30;82.90;;;;;;6113146;23;92886;-71
2021/12/29 11:58:27;;;;;;;13.40;7.80;;;11.30;83.10;;;;;;6125328;23;92373;-73
2021/12/29 12:01:25;;;;;;;12.38;7.07;;;11.30;83.10;;;;;;6124835;23;92902;-71
2021/12/29 12:03:54;;;;;;;11.98;6.95;;;11.30;82.80;;;;;;6106864;23;92766;-71
2021/12/29 12:06:24;;;;;;;12.27;7.45;;;11.30;83.00;;;;;;6124008;23;91789;-71
2021/12/29 12:09:25;;;;;;;14.82;7.80;;;11.30;82.80;;;;;;6098048;23;92428;-71
2021/12/29 12:11:53;;;;;;;16.92;9.27;;;11.40;82.60;;;;;;6107576;23;92942;-71
2021/12/29 12:14:36;;;;;;;16.73;9.50;;;11.40;82.60;;;;;;6123423;23;94765;-72
2021/12/29 12:17:14;;;;;;;12.15;8.73;;;11.50;82.50;;;;;;6123384;23;92522;-71
2021/12/29 12:19:42;;;;;;;14.40;8.82;;;11.50;82.30;;;;;;6125144;23;92292;-71
2021/12/29 12:22:13;;;;;;;15.95;9.23;;;11.50;82.30;;;;;;6148012;22;95761;-71
2021/12/29 12:24:50;;;;;;;15.65;8.45;;;11.60;82.20;;;;;;6147648;22;92765;-72
2021/12/29 12:27:39;;;;;;;17.98;8.73;;;11.60;82.10;;;;;;6125640;23;92790;-71
2021/12/29 12:30:20;;;;;;;14.93;8.38;;;11.60;81.90;;;;;;6125409;23;92409;-72
2021/12/29 12:32:51;;;;;;;18.85;8.73;;;11.50;82.00;;;;;;6125216;23;92215;-71
2021/12/29 12:35:34;;;;;;;18.90;9.53;;;11.50;82.10;;;;;;6124913;23;92728;-71
2021/12/29 12:38:15;;;;;;;19.00;9.40;;;11.50;82.10;;;;;;6124848;23;92507;-71
2021/12/29 12:40:58;;;;;;;21.88;9.85;;;11.50;82.00;;;;;;6123079;23;94868;-72
2021/12/29 12:43:25;;;;;;;18.55;9.30;;;11.50;82.30;;;;;;6100991;23;92419;-72
2021/12/29 12:45:53;;;;;;;22.60;10.00;;;11.50;82.20;;;;;;6097474;23;98421;-71
2021/12/29 12:48:30;;;;;;;14.27;8.90;;;11.50;82.10;;;;;;6097949;23;92559;-71
2021/12/29 12:51:01;;;;;;;16.80;8.80;;;11.50;82.20;;;;;;6124667;23;92364;-72
2021/12/29 12:53:38;;;;;;;21.95;9.05;;;11.50;82.10;;;;;;6124731;23;92396;-71
2021/12/29 12:56:17;;;;;;;17.80;8.60;;;11.60;82.20;;;;;;6124330;23;92520;-72
2021/12/29 12:58:47;;;;;;;21.90;8.77;;;11.60;82.10;;;;;;6125235;23;91602;-71